»·PEaware :: N8295L KSNA-KSNA

N8295L :: KSNA-KSNA

FLIGHT INFORMATION

Flight Status: Arrived
Operator: Privately registered:
United States
More flights under this callsign
Pilot: Corey G. (17774)
Aircraft: BEECH AIRCRAFT BONANZA
(BE36)
More flights by this aircraft type
Origin: KSNA John Wayne-Orange Co
United States
Destination: KSNA John Wayne-Orange Co
United States
More flights between these airports :: More routes between these airports
Route: SLI
File this flight plan on PilotEdge
Remarks: i-1 rating
Altitude:
(Current/Filed)
3,000ft
Speed:
(Current/Filed)
150kts
Departed: 09-Jan-18 12:35 PM
Arrived: 09-Jan-18 12:59 PM
Distance/Time
Traveled:
0nm/0:24
Distance/Time
To Go:
Arrived

Flight Plot

Page will automatically refresh every two minutes.


Map Options




Map Legend


Flown Route
Filed Route
Departure Airport
Arrival Airport
Navaid (VOR, NDB)
Fix

Horizontal Profiles

Position Reports

Time Latitude Longitude Heading Altitude Ground
Speed
09-Jan-18 12:20 33.670544 -117.874258 208 60ft 0kts
09-Jan-18 12:21 33.670544 -117.874258 208 60ft 0kts
09-Jan-18 12:22 33.670544 -117.874258 208 60ft 0kts
09-Jan-18 12:23 33.670544 -117.874258 208 60ft 0kts
09-Jan-18 12:24 33.670544 -117.874258 208 60ft 0kts
09-Jan-18 12:25 33.670544 -117.874258 208 60ft 0kts
09-Jan-18 12:26 33.670544 -117.874258 208 60ft 0kts
09-Jan-18 12:27 33.670544 -117.874258 208 60ft 0kts
09-Jan-18 12:28 33.670544 -117.874258 208 60ft 0kts
09-Jan-18 12:29 33.670544 -117.874258 208 60ft 0kts
09-Jan-18 12:30 33.670544 -117.874258 208 60ft 0kts
09-Jan-18 12:31 33.670544 -117.874258 208 60ft 0kts
09-Jan-18 12:32 33.670543 -117.874258 208 60ft 0kts
09-Jan-18 12:33 33.670543 -117.874258 208 60ft 0kts
09-Jan-18 12:34 33.670527 -117.874267 198 60ft 0kts
09-Jan-18 12:35 33.670297 -117.873873 87 60ft 7kts
09-Jan-18 12:36 33.672778 -117.872228 28 60ft 14kts
09-Jan-18 12:37 33.675708 -117.870344 28 60ft 15kts
09-Jan-18 12:38 33.678831 -117.868347 29 60ft 16kts
09-Jan-18 12:39 33.681252 -117.866463 116 60ft 5kts
09-Jan-18 12:40 33.681238 -117.866431 117 60ft 0kts
09-Jan-18 12:41 33.675614 -117.868900 205 96ft 85kts
09-Jan-18 12:42 33.657651 -117.885127 231 874ft 111kts
09-Jan-18 12:43 33.640359 -117.914217 231 1520ft 127kts
09-Jan-18 12:44 33.621201 -117.946501 231 2404ft 129kts
09-Jan-18 12:45 33.601143 -117.980940 232 2999ft 151kts
09-Jan-18 12:46 33.578622 -118.020963 251 2972ft 155kts
09-Jan-18 12:47 33.606714 -118.037347 21 2988ft 171kts
09-Jan-18 12:48 33.637105 -118.023292 21 2987ft 171kts
09-Jan-18 12:49 33.678785 -118.001084 22 2988ft 171kts
09-Jan-18 12:50 33.717161 -117.982972 22 2991ft 174kts
09-Jan-18 12:51 33.749743 -117.967561 22 2991ft 175kts
09-Jan-18 12:52 33.791495 -117.938407 32 2992ft 174kts
09-Jan-18 12:53 33.821861 -117.916661 31 2991ft 173kts
09-Jan-18 12:54 33.859857 -117.889527 31 2988ft 171kts
09-Jan-18 12:55 33.886531 -117.849962 91 2988ft 160kts
09-Jan-18 12:56 33.887628 -117.797728 91 2990ft 159kts
09-Jan-18 12:57 33.886001 -117.746808 126 2983ft 154kts
09-Jan-18 12:58 33.843533 -117.762435 205 2998ft 153kts
09-Jan-18 12:59 33.813476 -117.781440 205 2926ft 150kts
09-Jan-18 13:00 33.782568 -117.801028 206 2293ft 110kts
09-Jan-18 13:01 33.758050 -117.816590 206 1756ft 100kts
09-Jan-18 13:02 33.735157 -117.831128 207 1267ft 105kts
09-Jan-18 13:03 33.709546 -117.847384 207 692ft 95kts
09-Jan-18 13:04 33.690375 -117.859535 206 288ft 92kts
09-Jan-18 13:05 33.676157 -117.868605 212 60ft 16kts
09-Jan-18 13:06 33.675867 -117.869543 297 60ft 0kts
09-Jan-18 13:07 33.675765 -117.870587 303 60ft 13kts
09-Jan-18 13:08 33.676288 -117.871592 290 60ft 0kts
09-Jan-18 13:09 33.676288 -117.871592 290 60ft 0kts
09-Jan-18 13:10 33.676288 -117.871592 290 60ft 0kts
09-Jan-18 13:11 33.676288 -117.871592 290 60ft 0kts
09-Jan-18 13:12 33.676288 -117.871592 290 60ft 0kts
09-Jan-18 13:13 33.676288 -117.871592 290 60ft 0kts
09-Jan-18 13:14 33.676288 -117.871592 290 60ft 0kts
09-Jan-18 13:15 33.676288 -117.871592 290 60ft 0kts
09-Jan-18 13:16 33.676288 -117.871592 290 60ft 0kts
09-Jan-18 13:17 33.676288 -117.871592 290 60ft 0kts
09-Jan-18 13:18 33.676288 -117.871592 290 60ft 0kts
09-Jan-18 13:19 33.676288 -117.871592 290 60ft 0kts

Navigation Log

Ident Type
1. KSNA Airport
2. SLI Navaid
3. KSNA Airport